sensor_id;sensor_type;location;lat;lon;timestamp;pressure;altitude;pressure_sealevel;temperature;humidity
71195;BME280;58908;51.426;7.714;2023-02-28T00:00:48;101196.53;;;-2.58;100.00
71195;BME280;58908;51.426;7.714;2023-02-28T00:03:14;101194.22;;;-2.43;100.00
71195;BME280;58908;51.426;7.714;2023-02-28T00:05:41;101195.88;;;-2.46;100.00
71195;BME280;58908;51.426;7.714;2023-02-28T00:08:07;101195.97;;;-2.40;100.00
71195;BME280;58908;51.426;7.714;2023-02-28T00:10:36;101195.78;;;-2.52;100.00
71195;BME280;58908;51.426;7.714;2023-02-28T00:13:04;101196.66;;;-2.50;100.00
71195;BME280;58908;51.426;7.714;2023-02-28T00:15:32;101194.03;;;-2.52;100.00
71195;BME280;58908;51.426;7.714;2023-02-28T00:17:58;101191.25;;;-2.64;100.00
71195;BME280;58908;51.426;7.714;2023-02-28T00:20:24;101197.06;;;-2.74;100.00
71195;BME280;58908;51.426;7.714;2023-02-28T00:22:52;101199.47;;;-2.84;100.00
71195;BME280;58908;51.426;7.714;2023-02-28T00:25:19;101190.69;;;-2.92;100.00
71195;BME280;58908;51.426;7.714;2023-02-28T00:27:46;101190.69;;;-2.92;100.00
71195;BME280;58908;51.426;7.714;2023-02-28T00:30:13;101194.03;;;-2.99;100.00
71195;BME280;58908;51.426;7.714;2023-02-28T00:32:41;101187.09;;;-3.02;100.00
71195;BME280;58908;51.426;7.714;2023-02-28T00:35:08;101188.63;;;-3.10;100.00
71195;BME280;58908;51.426;7.714;2023-02-28T00:37:34;101198.16;;;-3.07;100.00
71195;BME280;58908;51.426;7.714;2023-02-28T00:40:01;101190.31;;;-3.12;100.00
71195;BME280;58908;51.426;7.714;2023-02-28T00:42:30;101189.50;;;-3.09;100.00
71195;BME280;58908;51.426;7.714;2023-02-28T00:44:56;101195.34;;;-3.18;100.00
71195;BME280;58908;51.426;7.714;2023-02-28T00:47:22;101190.97;;;-3.22;100.00
71195;BME280;58908;51.426;7.714;2023-02-28T00:49:50;101181.34;;;-3.30;100.00
71195;BME280;58908;51.426;7.714;2023-02-28T00:52:16;101184.66;;;-3.34;100.00
71195;BME280;58908;51.426;7.714;2023-02-28T00:54:42;101186.34;;;-3.36;100.00
71195;BME280;58908;51.426;7.714;2023-02-28T00:57:08;101190.66;;;-3.37;100.00
71195;BME280;58908;51.426;7.714;2023-02-28T00:59:35;101180.19;;;-3.43;100.00
71195;BME280;58908;51.426;7.714;2023-02-28T01:02:01;101189.72;;;-3.39;100.00
71195;BME280;58908;51.426;7.714;2023-02-28T01:04:27;101187.34;;;-3.30;100.00
71195;BME280;58908;51.426;7.714;2023-02-28T01:06:55;101187.34;;;-3.31;100.00
71195;BME280;58908;51.426;7.714;2023-02-28T01:09:21;101179.81;;;-3.21;100.00
71195;BME280;58908;51.426;7.714;2023-02-28T01:11:47;101184.91;;;-3.22;100.00
71195;BME280;58908;51.426;7.714;2023-02-28T01:14:14;101183.03;;;-3.32;100.00
71195;BME280;58908;51.426;7.714;2023-02-28T01:16:40;101179.34;;;-3.42;100.00
71195;BME280;58908;51.426;7.714;2023-02-28T01:19:07;101177.53;;;-3.47;100.00
71195;BME280;58908;51.426;7.714;2023-02-28T01:21:33;101179.94;;;-3.55;100.00
71195;BME280;58908;51.426;7.714;2023-02-28T01:24:02;101180.63;;;-3.62;100.00
71195;BME280;58908;51.426;7.714;2023-02-28T01:26:28;101177.88;;;-3.71;100.00
71195;BME280;58908;51.426;7.714;2023-02-28T01:28:55;101172.69;;;-3.72;100.00
71195;BME280;58908;51.426;7.714;2023-02-28T01:31:21;101182.03;;;-3.76;100.00
71195;BME280;58908;51.426;7.714;2023-02-28T01:33:48;101183.72;;;-3.78;100.00
71195;BME280;58908;51.426;7.714;2023-02-28T01:36:15;101192.25;;;-3.82;100.00
71195;BME280;58908;51.426;7.714;2023-02-28T01:38:41;101190.41;;;-3.86;100.00
71195;BME280;58908;51.426;7.714;2023-02-28T01:41:10;101184.31;;;-3.89;100.00
71195;BME280;58908;51.426;7.714;2023-02-28T01:43:52;101184.25;;;-3.92;100.00
71195;BME280;58908;51.426;7.714;2023-02-28T01:46:19;101192.75;;;-3.95;100.00
71195;BME280;58908;51.426;7.714;2023-02-28T01:48:46;101185.00;;;-3.96;100.00
71195;BME280;58908;51.426;7.714;2023-02-28T01:51:15;101179.81;;;-3.99;100.00
71195;BME280;58908;51.426;7.714;2023-02-28T01:53:43;101185.88;;;-3.96;100.00
71195;BME280;58908;51.426;7.714;2023-02-28T01:56:13;101173.19;;;-3.87;100.00
71195;BME280;58908;51.426;7.714;2023-02-28T01:58:45;101180.81;;;-3.93;100.00
71195;BME280;58908;51.426;7.714;2023-02-28T02:01:12;101179.88;;;-3.96;100.00
71195;BME280;58908;51.426;7.714;2023-02-28T02:03:46;101180.59;;;-4.00;100.00
71195;BME280;58908;51.426;7.714;2023-02-28T02:06:12;101170.53;;;-3.91;100.00
71195;BME280;58908;51.426;7.714;2023-02-28T02:08:39;101166.72;;;-3.70;100.00
71195;BME280;58908;51.426;7.714;2023-02-28T02:11:05;101175.63;;;-3.56;100.00
71195;BME280;58908;51.426;7.714;2023-02-28T02:13:51;101174.63;;;-3.62;100.00
71195;BME280;58908;51.426;7.714;2023-02-28T02:16:28;101169.84;;;-3.84;100.00
71195;BME280;58908;51.426;7.714;2023-02-28T02:18:58;101174.78;;;-3.93;100.00
71195;BME280;58908;51.426;7.714;2023-02-28T02:21:43;101172.81;;;-4.03;100.00
71195;BME280;58908;51.426;7.714;2023-02-28T02:26:55;101173.31;;;-4.19;100.00
71195;BME280;58908;51.426;7.714;2023-02-28T02:29:44;101175.72;;;-4.25;100.00
71195;BME280;58908;51.426;7.714;2023-02-28T02:32:16;101181.69;;;-4.26;100.00
71195;BME280;58908;51.426;7.714;2023-02-28T02:34:50;101167.13;;;-4.26;100.00
71195;BME280;58908;51.426;7.714;2023-02-28T02:37:28;101170.19;;;-4.06;100.00
71195;BME280;58908;51.426;7.714;2023-02-28T02:39:59;101167.72;;;-4.02;100.00
71195;BME280;58908;51.426;7.714;2023-02-28T02:42:28;101168.66;;;-3.98;100.00
71195;BME280;58908;51.426;7.714;2023-02-28T02:44:56;101163.41;;;-4.03;100.00
71195;BME280;58908;51.426;7.714;2023-02-28T02:47:26;101165.69;;;-4.15;100.00
71195;BME280;58908;51.426;7.714;2023-02-28T02:49:55;101168.06;;;-4.22;100.00
71195;BME280;58908;51.426;7.714;2023-02-28T02:52:23;101168.06;;;-4.22;100.00
71195;BME280;58908;51.426;7.714;2023-02-28T02:54:50;101173.13;;;-4.27;100.00
71195;BME280;58908;51.426;7.714;2023-02-28T02:57:20;101172.13;;;-4.32;100.00
71195;BME280;58908;51.426;7.714;2023-02-28T02:59:49;101181.69;;;-4.28;100.00
71195;BME280;58908;51.426;7.714;2023-02-28T03:02:17;101174.69;;;-4.33;100.00
71195;BME280;58908;51.426;7.714;2023-02-28T03:04:45;101180.69;;;-4.33;100.00
71195;BME280;58908;51.426;7.714;2023-02-28T03:07:13;101178.88;;;-4.37;100.00
71195;BME280;58908;51.426;7.714;2023-02-28T03:09:39;101179.66;;;-4.39;100.00
71195;BME280;58908;51.426;7.714;2023-02-28T03:12:07;101176.13;;;-4.43;100.00
71195;BME280;58908;51.426;7.714;2023-02-28T03:14:48;101171.63;;;-4.51;100.00
71195;BME280;58908;51.426;7.714;2023-02-28T03:17:24;101174.03;;;-4.59;100.00
71195;BME280;58908;51.426;7.714;2023-02-28T03:20:00;101172.13;;;-4.66;100.00
71195;BME280;58908;51.426;7.714;2023-02-28T03:22:35;101170.44;;;-4.65;100.00
71195;BME280;58908;51.426;7.714;2023-02-28T03:25:06;101179.00;;;-4.65;100.00
71195;BME280;58908;51.426;7.714;2023-02-28T03:27:35;101170.31;;;-4.69;100.00
71195;BME280;58908;51.426;7.714;2023-02-28T03:30:04;101166.00;;;-4.69;100.00
71195;BME280;58908;51.426;7.714;2023-02-28T03:32:33;101168.19;;;-4.52;100.00
71195;BME280;58908;51.426;7.714;2023-02-28T03:35:02;101171.34;;;-4.62;100.00
71195;BME280;58908;51.426;7.714;2023-02-28T03:37:33;101170.88;;;-4.47;100.00
71195;BME280;58908;51.426;7.714;2023-02-28T03:40:02;101172.13;;;-4.32;100.00
71195;BME280;58908;51.426;7.714;2023-02-28T03:42:31;101170.75;;;-4.53;100.00
71195;BME280;58908;51.426;7.714;2023-02-28T03:45:00;101168.91;;;-4.57;100.00
71195;BME280;58908;51.426;7.714;2023-02-28T03:47:28;101169.84;;;-4.54;100.00
71195;BME280;58908;51.426;7.714;2023-02-28T03:49:57;101174.94;;;-4.57;100.00
71195;BME280;58908;51.426;7.714;2023-02-28T03:52:27;101175.47;;;-4.68;100.00
71195;BME280;58908;51.426;7.714;2023-02-28T03:54:55;101168.59;;;-4.69;100.00
71195;BME280;58908;51.426;7.714;2023-02-28T03:57:24;101178.81;;;-4.72;100.00
71195;BME280;58908;51.426;7.714;2023-02-28T03:59:54;101174.44;;;-4.74;100.00
71195;BME280;58908;51.426;7.714;2023-02-28T04:02:22;101174.31;;;-4.80;100.00
71195;BME280;58908;51.426;7.714;2023-02-28T04:04:49;101175.41;;;-4.71;100.00
71195;BME280;58908;51.426;7.714;2023-02-28T04:07:16;101181.94;;;-4.51;100.00
71195;BME280;58908;51.426;7.714;2023-02-28T04:09:42;101170.38;;;-4.33;100.00
71195;BME280;58908;51.426;7.714;2023-02-28T04:12:10;101174.16;;;-4.19;100.00
71195;BME280;58908;51.426;7.714;2023-02-28T04:14:36;101176.91;;;-4.11;100.00
71195;BME280;58908;51.426;7.714;2023-02-28T04:17:03;101167.09;;;-3.90;100.00
71195;BME280;58908;51.426;7.714;2023-02-28T04:19:29;101173.94;;;-3.92;100.00
71195;BME280;58908;51.426;7.714;2023-02-28T04:21:57;101176.56;;;-3.89;100.00
71195;BME280;58908;51.426;7.714;2023-02-28T04:24:24;101176.56;;;-3.89;100.00
71195;BME280;58908;51.426;7.714;2023-02-28T04:26:51;101187.47;;;-4.01;100.00
71195;BME280;58908;51.426;7.714;2023-02-28T04:29:20;101184.44;;;-4.20;100.00
71195;BME280;58908;51.426;7.714;2023-02-28T04:31:47;101180.56;;;-4.39;100.00
71195;BME280;58908;51.426;7.714;2023-02-28T04:34:13;101178.53;;;-4.50;100.00
71195;BME280;58908;51.426;7.714;2023-02-28T04:36:39;101178.16;;;-4.65;100.00
71195;BME280;58908;51.426;7.714;2023-02-28T04:39:05;101177.91;;;-4.74;100.00
71195;BME280;58908;51.426;7.714;2023-02-28T04:41:32;101176.28;;;-4.70;100.00
71195;BME280;58908;51.426;7.714;2023-02-28T04:43:59;101182.28;;;-4.71;100.00
71195;BME280;58908;51.426;7.714;2023-02-28T04:46:26;101178.56;;;-4.81;100.00
71195;BME280;58908;51.426;7.714;2023-02-28T04:48:53;101181.19;;;-4.79;100.00
71195;BME280;58908;51.426;7.714;2023-02-28T04:51:19;101180.31;;;-4.80;100.00
71195;BME280;58908;51.426;7.714;2023-02-28T04:53:46;101186.59;;;-4.70;100.00
71195;BME280;58908;51.426;7.714;2023-02-28T04:56:13;101189.91;;;-4.41;100.00
71195;BME280;58908;51.426;7.714;2023-02-28T04:58:40;101187.38;;;-4.05;100.00
71195;BME280;58908;51.426;7.714;2023-02-28T05:01:13;101186.84;;;-4.28;100.00
71195;BME280;58908;51.426;7.714;2023-02-28T05:03:43;101186.09;;;-3.87;100.00
71195;BME280;58908;51.426;7.714;2023-02-28T05:06:09;101183.38;;;-3.93;100.00
71195;BME280;58908;51.426;7.714;2023-02-28T05:08:36;101183.44;;;-3.90;100.00
71195;BME280;58908;51.426;7.714;2023-02-28T05:11:02;101176.88;;;-3.77;100.00
71195;BME280;58908;51.426;7.714;2023-02-28T05:13:29;101179.72;;;-3.65;100.00
71195;BME280;58908;51.426;7.714;2023-02-28T05:15:55;101188.22;;;-3.69;100.00
71195;BME280;58908;51.426;7.714;2023-02-28T05:18:22;101178.41;;;-3.84;100.00
71195;BME280;58908;51.426;7.714;2023-02-28T05:20:49;101192.34;;;-4.13;100.00
71195;BME280;58908;51.426;7.714;2023-02-28T05:23:15;101193.56;;;-4.33;100.00
71195;BME280;58908;51.426;7.714;2023-02-28T05:25:43;101189.41;;;-4.60;100.00
71195;BME280;58908;51.426;7.714;2023-02-28T05:28:09;101193.97;;;-4.82;100.00
71195;BME280;58908;51.426;7.714;2023-02-28T05:30:36;101182.75;;;-4.84;100.00
71195;BME280;58908;51.426;7.714;2023-02-28T05:33:02;101186.91;;;-4.89;100.00
71195;BME280;58908;51.426;7.714;2023-02-28T05:35:28;101193.72;;;-4.91;100.00
71195;BME280;58908;51.426;7.714;2023-02-28T05:37:56;101197.84;;;-4.98;100.00
71195;BME280;58908;51.426;7.714;2023-02-28T05:40:22;101196.00;;;-5.02;100.00
71195;BME280;58908;51.426;7.714;2023-02-28T05:42:49;101192.72;;;-4.96;100.00
71195;BME280;58908;51.426;7.714;2023-02-28T05:45:16;101204.72;;;-4.97;100.00
71195;BME280;58908;51.426;7.714;2023-02-28T05:47:42;101201.75;;;-5.10;100.00
71195;BME280;58908;51.426;7.714;2023-02-28T05:50:09;101204.41;;;-5.07;100.00
71195;BME280;58908;51.426;7.714;2023-02-28T05:52:35;101203.47;;;-5.11;100.00
71195;BME280;58908;51.426;7.714;2023-02-28T05:55:04;101207.44;;;-5.22;100.00
71195;BME280;58908;51.426;7.714;2023-02-28T05:57:30;101212.47;;;-5.25;100.00
71195;BME280;58908;51.426;7.714;2023-02-28T05:59:56;101204.38;;;-5.38;100.00
71195;BME280;58908;51.426;7.714;2023-02-28T06:02:22;101209.25;;;-5.47;100.00
71195;BME280;58908;51.426;7.714;2023-02-28T06:04:49;101207.38;;;-5.53;100.00
71195;BME280;58908;51.426;7.714;2023-02-28T06:07:15;101204.53;;;-5.62;100.00
71195;BME280;58908;51.426;7.714;2023-02-28T06:09:42;101211.22;;;-5.67;100.00
71195;BME280;58908;51.426;7.714;2023-02-28T06:12:10;101216.41;;;-5.65;100.00
71195;BME280;58908;51.426;7.714;2023-02-28T06:14:36;101219.53;;;-5.47;100.00
71195;BME280;58908;51.426;7.714;2023-02-28T06:17:03;101219.84;;;-5.37;100.00
71195;BME280;58908;51.426;7.714;2023-02-28T06:19:29;101226.13;;;-5.27;100.00
71195;BME280;58908;51.426;7.714;2023-02-28T06:21:55;101224.81;;;-5.43;100.00
71195;BME280;58908;51.426;7.714;2023-02-28T06:24:22;101229.75;;;-5.49;100.00
71195;BME280;58908;51.426;7.714;2023-02-28T06:26:48;101232.28;;;-5.50;100.00
71195;BME280;58908;51.426;7.714;2023-02-28T06:29:16;101238.25;;;-5.51;100.00
71195;BME280;58908;51.426;7.714;2023-02-28T06:31:43;101233.06;;;-5.53;100.00
71195;BME280;58908;51.426;7.714;2023-02-28T06:34:09;101239.13;;;-5.51;100.00
71195;BME280;58908;51.426;7.714;2023-02-28T06:36:36;101231.22;;;-5.57;100.00
71195;BME280;58908;51.426;7.714;2023-02-28T06:39:03;101243.22;;;-5.57;100.00
71195;BME280;58908;51.426;7.714;2023-02-28T06:41:29;101240.72;;;-5.54;100.00
71195;BME280;58908;51.426;7.714;2023-02-28T06:43:55;101237.31;;;-5.53;100.00
71195;BME280;58908;51.426;7.714;2023-02-28T06:46:23;101239.03;;;-5.54;100.00
71195;BME280;58908;51.426;7.714;2023-02-28T06:48:49;101238.00;;;-5.59;100.00
71195;BME280;58908;51.426;7.714;2023-02-28T06:51:16;101236.41;;;-5.55;100.00
71195;BME280;58908;51.426;7.714;2023-02-28T06:53:45;101243.34;;;-5.53;100.00
71195;BME280;58908;51.426;7.714;2023-02-28T06:56:12;101245.94;;;-5.51;100.00
71195;BME280;58908;51.426;7.714;2023-02-28T06:58:38;101246.97;;;-5.46;100.00
71195;BME280;58908;51.426;7.714;2023-02-28T07:01:05;101244.00;;;-5.32;100.00
71195;BME280;58908;51.426;7.714;2023-02-28T07:03:34;101252.22;;;-5.15;100.00
71195;BME280;58908;51.426;7.714;2023-02-28T07:06:00;101255.72;;;-5.12;100.00
71195;BME280;58908;51.426;7.714;2023-02-28T07:08:27;101257.13;;;-4.93;100.00
71195;BME280;58908;51.426;7.714;2023-02-28T07:10:54;101258.19;;;-4.85;100.00
71195;BME280;58908;51.426;7.714;2023-02-28T07:13:21;101254.28;;;-4.73;100.00
71195;BME280;58908;51.426;7.714;2023-02-28T07:15:52;101261.63;;;-4.56;100.00
71195;BME280;58908;51.426;7.714;2023-02-28T07:18:19;101263.28;;;-4.25;100.00
71195;BME280;58908;51.426;7.714;2023-02-28T07:20:46;101266.59;;;-3.97;100.00
71195;BME280;58908;51.426;7.714;2023-02-28T07:23:13;101265.53;;;-3.69;100.00
71195;BME280;58908;51.426;7.714;2023-02-28T07:25:39;101269.06;;;-3.66;100.00
71195;BME280;58908;51.426;7.714;2023-02-28T07:28:05;101263.13;;;-3.62;100.00
71195;BME280;58908;51.426;7.714;2023-02-28T07:30:32;101266.66;;;-3.60;100.00
71195;BME280;58908;51.426;7.714;2023-02-28T07:32:58;101261.88;;;-3.43;100.00
71195;BME280;58908;51.426;7.714;2023-02-28T07:35:24;101256.88;;;-3.36;100.00
71195;BME280;58908;51.426;7.714;2023-02-28T07:37:52;101252.81;;;-3.25;100.00
71195;BME280;58908;51.426;7.714;2023-02-28T07:40:18;101257.50;;;-3.07;100.00
71195;BME280;58908;51.426;7.714;2023-02-28T07:42:44;101249.97;;;-2.97;100.00
71195;BME280;58908;51.426;7.714;2023-02-28T07:45:11;101246.63;;;-2.93;100.00
71195;BME280;58908;51.426;7.714;2023-02-28T07:47:37;101253.97;;;-2.71;100.00
71195;BME280;58908;51.426;7.714;2023-02-28T07:50:04;101260.03;;;-2.67;100.00
71195;BME280;58908;51.426;7.714;2023-02-28T07:52:31;101246.66;;;-2.47;100.00
71195;BME280;58908;51.426;7.714;2023-02-28T07:54:58;101252.22;;;-2.72;100.00
71195;BME280;58908;51.426;7.714;2023-02-28T07:57:24;101257.28;;;-2.75;100.00
71195;BME280;58908;51.426;7.714;2023-02-28T07:59:51;101256.91;;;-2.50;100.00
71195;BME280;58908;51.426;7.714;2023-02-28T08:02:17;101259.59;;;-2.45;100.00
71195;BME280;58908;51.426;7.714;2023-02-28T08:04:44;101256.38;;;-2.34;100.00
71195;BME280;58908;51.426;7.714;2023-02-28T08:07:12;101255.75;;;-2.21;100.00
71195;BME280;58908;51.426;7.714;2023-02-28T08:09:38;101253.38;;;-2.09;100.00
71195;BME280;58908;51.426;7.714;2023-02-28T08:12:07;101255.31;;;-1.96;100.00
71195;BME280;58908;51.426;7.714;2023-02-28T08:14:33;101262.50;;;-1.80;100.00
71195;BME280;58908;51.426;7.714;2023-02-28T08:17:00;101254.38;;;-1.48;100.00
71195;BME280;58908;51.426;7.714;2023-02-28T08:19:26;101257.03;;;-1.43;100.00
71195;BME280;58908;51.426;7.714;2023-02-28T08:21:53;101257.81;;;-1.49;100.00
71195;BME280;58908;51.426;7.714;2023-02-28T08:24:23;101258.44;;;-1.65;100.00
71195;BME280;58908;51.426;7.714;2023-02-28T08:26:49;101256.50;;;-1.76;100.00
71195;BME280;58908;51.426;7.714;2023-02-28T08:29:19;101265.72;;;-1.93;100.00
71195;BME280;58908;51.426;7.714;2023-02-28T08:31:45;101262.00;;;-2.09;100.00
71195;BME280;58908;51.426;7.714;2023-02-28T08:34:12;101264.47;;;-2.16;100.00
71195;BME280;58908;51.426;7.714;2023-02-28T08:36:39;101270.69;;;-2.05;100.00
71195;BME280;58908;51.426;7.714;2023-02-28T08:39:05;101261.22;;;-2.05;100.00
71195;BME280;58908;51.426;7.714;2023-02-28T08:41:32;101268.22;;;-1.98;100.00
71195;BME280;58908;51.426;7.714;2023-02-28T08:43:59;101263.41;;;-1.77;100.00
71195;BME280;58908;51.426;7.714;2023-02-28T08:46:27;101267.09;;;-1.63;100.00
71195;BME280;58908;51.426;7.714;2023-02-28T08:48:54;101269.03;;;-1.48;100.00
71195;BME280;58908;51.426;7.714;2023-02-28T08:51:24;101263.19;;;-1.35;100.00
71195;BME280;58908;51.426;7.714;2023-02-28T08:53:52;101261.03;;;-1.05;100.00
71195;BME280;58908;51.426;7.714;2023-02-28T08:56:18;101257.28;;;-0.57;100.00
71195;BME280;58908;51.426;7.714;2023-02-28T08:58:45;101256.44;;;-0.57;100.00
71195;BME280;58908;51.426;7.714;2023-02-28T09:01:13;101259.25;;;-0.36;100.00
71195;BME280;58908;51.426;7.714;2023-02-28T09:03:41;101251.66;;;-0.20;100.00
71195;BME280;58908;51.426;7.714;2023-02-28T09:06:08;101256.66;;;-0.36;100.00
71195;BME280;58908;51.426;7.714;2023-02-28T09:08:35;101260.75;;;-0.56;100.00
71195;BME280;58908;51.426;7.714;2023-02-28T09:11:02;101264.97;;;-0.64;100.00
71195;BME280;58908;51.426;7.714;2023-02-28T09:13:28;101269.91;;;-0.87;100.00
71195;BME280;58908;51.426;7.714;2023-02-28T09:15:57;101258.72;;;-0.83;100.00
71195;BME280;58908;51.426;7.714;2023-02-28T09:18:24;101253.00;;;-0.55;100.00
71195;BME280;58908;51.426;7.714;2023-02-28T09:20:52;101261.78;;;-0.39;100.00
71195;BME280;58908;51.426;7.714;2023-02-28T09:23:18;101257.94;;;0.09;99.90
71195;BME280;58908;51.426;7.714;2023-02-28T09:25:45;101252.28;;;0.59;97.01
71195;BME280;58908;51.426;7.714;2023-02-28T09:28:12;101242.91;;;0.78;92.28
71195;BME280;58908;51.426;7.714;2023-02-28T09:30:40;101242.97;;;0.96;91.37
71195;BME280;58908;51.426;7.714;2023-02-28T09:33:07;101239.56;;;1.09;86.57
71195;BME280;58908;51.426;7.714;2023-02-28T09:35:33;101247.34;;;1.01;84.33
71195;BME280;58908;51.426;7.714;2023-02-28T09:38:03;101240.69;;;1.80;82.61
71195;BME280;58908;51.426;7.714;2023-02-28T09:40:30;101245.00;;;1.87;79.88
71195;BME280;58908;51.426;7.714;2023-02-28T09:42:57;101248.31;;;1.24;79.14
71195;BME280;58908;51.426;7.714;2023-02-28T09:45:24;101244.03;;;1.37;80.07
71195;BME280;58908;51.426;7.714;2023-02-28T09:47:53;101243.03;;;1.05;80.14
71195;BME280;58908;51.426;7.714;2023-02-28T09:50:23;101238.94;;;1.77;79.24
71195;BME280;58908;51.426;7.714;2023-02-28T09:52:55;101231.16;;;2.38;72.71
71195;BME280;58908;51.426;7.714;2023-02-28T09:55:25;101230.16;;;1.38;76.24
71195;BME280;58908;51.426;7.714;2023-02-28T09:57:53;101235.28;;;1.15;75.27
71195;BME280;58908;51.426;7.714;2023-02-28T10:00:22;101233.63;;;1.32;74.92
71195;BME280;58908;51.426;7.714;2023-02-28T10:03:00;101235.47;;;1.68;70.79
71195;BME280;58908;51.426;7.714;2023-02-28T10:05:30;101231.00;;;1.28;71.18
71195;BME280;58908;51.426;7.714;2023-02-28T10:08:03;101236.19;;;1.26;73.02
71195;BME280;58908;51.426;7.714;2023-02-28T10:10:35;101235.34;;;1.32;73.47
71195;BME280;58908;51.426;7.714;2023-02-28T10:13:04;101230.97;;;1.13;73.22
71195;BME280;58908;51.426;7.714;2023-02-28T10:15:32;101231.91;;;1.43;73.59
71195;BME280;58908;51.426;7.714;2023-02-28T10:18:01;101218.94;;;1.48;71.90
71195;BME280;58908;51.426;7.714;2023-02-28T10:20:27;101225.91;;;1.70;69.88
71195;BME280;58908;51.426;7.714;2023-02-28T10:23:00;101223.34;;;2.10;68.56
71195;BME280;58908;51.426;7.714;2023-02-28T10:25:32;101210.31;;;2.52;66.87
71195;BME280;58908;51.426;7.714;2023-02-28T10:28:04;101198.19;;;2.26;63.92
71195;BME280;58908;51.426;7.714;2023-02-28T10:30:34;101201.63;;;2.53;63.50
71195;BME280;58908;51.426;7.714;2023-02-28T10:33:00;101201.63;;;2.38;63.21
71195;BME280;58908;51.426;7.714;2023-02-28T10:35:27;101191.25;;;2.36;63.38
71195;BME280;58908;51.426;7.714;2023-02-28T10:37:53;101193.75;;;2.68;62.85
71195;BME280;58908;51.426;7.714;2023-02-28T10:40:26;101185.88;;;2.83;60.56
71195;BME280;58908;51.426;7.714;2023-02-28T10:42:56;101192.91;;;2.67;61.40
71195;BME280;58908;51.426;7.714;2023-02-28T10:45:24;101182.44;;;2.87;61.22
71195;BME280;58908;51.426;7.714;2023-02-28T10:47:52;101186.78;;;2.85;62.04
71195;BME280;58908;51.426;7.714;2023-02-28T10:50:34;101190.13;;;3.11;62.99
71195;BME280;58908;51.426;7.714;2023-02-28T10:55:57;101192.63;;;3.36;64.48
71195;BME280;58908;51.426;7.714;2023-02-28T10:58:25;101186.56;;;3.33;62.76
71195;BME280;58908;51.426;7.714;2023-02-28T11:00:53;101187.53;;;3.17;62.05
71195;BME280;58908;51.426;7.714;2023-02-28T11:03:24;101184.09;;;3.00;63.32
71195;BME280;58908;51.426;7.714;2023-02-28T11:05:51;101178.97;;;2.79;64.15
71195;BME280;58908;51.426;7.714;2023-02-28T11:08:17;101177.22;;;2.81;64.66
71195;BME280;58908;51.426;7.714;2023-02-28T11:10:44;101183.22;;;3.02;65.14
71195;BME280;58908;51.426;7.714;2023-02-28T11:13:14;101177.09;;;3.09;63.97
71195;BME280;58908;51.426;7.714;2023-02-28T11:15:42;101182.22;;;3.32;63.20
71195;BME280;58908;51.426;7.714;2023-02-28T11:18:23;101190.94;;;3.25;61.37
71195;BME280;58908;51.426;7.714;2023-02-28T11:20:51;101184.03;;;3.16;60.71
71195;BME280;58908;51.426;7.714;2023-02-28T11:23:18;101173.50;;;3.39;61.50
71195;BME280;58908;51.426;7.714;2023-02-28T11:25:47;101172.59;;;3.43;61.01
71195;BME280;58908;51.426;7.714;2023-02-28T11:28:24;101175.31;;;3.20;61.25
71195;BME280;58908;51.426;7.714;2023-02-28T11:30:59;101165.66;;;3.42;61.28
71195;BME280;58908;51.426;7.714;2023-02-28T11:33:28;101164.75;;;3.46;61.24
71195;BME280;58908;51.426;7.714;2023-02-28T11:35:55;101157.97;;;3.15;61.64
71195;BME280;58908;51.426;7.714;2023-02-28T11:38:24;101158.94;;;2.96;62.13
71195;BME280;58908;51.426;7.714;2023-02-28T11:40:55;101166.72;;;3.03;63.88
71195;BME280;58908;51.426;7.714;2023-02-28T11:43:27;101157.03;;;3.26;63.04
71195;BME280;58908;51.426;7.714;2023-02-28T11:46:02;101169.28;;;3.17;61.96
71195;BME280;58908;51.426;7.714;2023-02-28T11:48:34;101164.91;;;3.19;61.42
71195;BME280;58908;51.426;7.714;2023-02-28T11:51:07;101172.63;;;3.38;61.31
71195;BME280;58908;51.426;7.714;2023-02-28T11:53:38;101167.41;;;3.40;61.05
71195;BME280;58908;51.426;7.714;2023-02-28T11:56:08;101162.16;;;3.43;60.43
71195;BME280;58908;51.426;7.714;2023-02-28T11:58:42;101164.84;;;3.25;60.87
71195;BME280;58908;51.426;7.714;2023-02-28T12:01:18;101160.53;;;3.25;61.54
71195;BME280;58908;51.426;7.714;2023-02-28T12:03:51;101169.38;;;2.90;62.04
71195;BME280;58908;51.426;7.714;2023-02-28T12:06:22;101165.91;;;2.92;63.03
71195;BME280;58908;51.426;7.714;2023-02-28T12:08:53;101158.06;;;2.94;61.83
71195;BME280;58908;51.426;7.714;2023-02-28T12:11:29;101170.09;;;3.20;62.28
71195;BME280;58908;51.426;7.714;2023-02-28T12:14:02;101160.81;;;2.59;62.80
71195;BME280;58908;51.426;7.714;2023-02-28T12:16:50;101152.88;;;2.92;63.01
71195;BME280;58908;51.426;7.714;2023-02-28T12:19:23;101158.03;;;3.06;63.18
71195;BME280;58908;51.426;7.714;2023-02-28T12:22:00;101143.25;;;3.02;62.01
71195;BME280;58908;51.426;7.714;2023-02-28T12:24:34;101132.00;;;2.94;61.50
71195;BME280;58908;51.426;7.714;2023-02-28T12:27:05;101143.31;;;2.90;62.45
71195;BME280;58908;51.426;7.714;2023-02-28T12:29:37;101145.00;;;3.00;61.96
71195;BME280;58908;51.426;7.714;2023-02-28T12:32:09;101140.66;;;3.02;61.86
71195;BME280;58908;51.426;7.714;2023-02-28T12:34:39;101136.06;;;3.47;62.12
71195;BME280;58908;51.426;7.714;2023-02-28T12:37:07;101138.66;;;3.46;61.78
71195;BME280;58908;51.426;7.714;2023-02-28T12:39:36;101134.38;;;3.39;62.00
71195;BME280;58908;51.426;7.714;2023-02-28T12:42:05;101124.78;;;3.38;61.25
71195;BME280;58908;51.426;7.714;2023-02-28T12:44:35;101109.00;;;3.60;61.12
71195;BME280;58908;51.426;7.714;2023-02-28T12:47:04;101115.97;;;3.57;56.85
71195;BME280;58908;51.426;7.714;2023-02-28T12:49:32;101114.97;;;3.76;55.21
71195;BME280;58908;51.426;7.714;2023-02-28T12:52:01;101107.97;;;3.78;54.85
71195;BME280;58908;51.426;7.714;2023-02-28T12:54:29;101097.50;;;3.84;55.49
71195;BME280;58908;51.426;7.714;2023-02-28T12:56:58;101093.91;;;3.95;56.15